Time;durP1;ratioP1;P1;durP2;ratioP2;P2;SDS_P1;SDS_P2;PMS_P1;PMS_P2;Temp;Humidity;BMP_temperature;BMP_pressure;BME280_temperature;BME280_humidity;BME280_pressure;Samples;Min_cycle;Max_cycle;Signal;HPM_P1;HPM_P2
2023/04/30 00:04:21;;;;;;;5.77;4.40;;;15.90;37.60;;;;;;10373205;28;20741;-69
2023/04/30 00:09:24;;;;;;;4.67;4.30;;;15.80;37.40;;;;;;10376684;28;20584;-69
2023/04/30 00:14:28;;;;;;;4.77;4.40;;;15.80;37.50;;;;;;10373423;28;20230;-69
2023/04/30 00:19:32;;;;;;;4.77;4.40;;;15.80;37.70;;;;;;10373288;28;20229;-69
2023/04/30 00:24:35;;;;;;;4.33;4.03;;;15.80;37.60;;;;;;10374024;28;20280;-69
2023/04/30 00:29:40;;;;;;;5.30;3.80;;;15.70;37.50;;;;;;10387991;28;20226;-68
2023/04/30 00:34:43;;;;;;;3.80;3.50;;;15.70;37.70;;;;;;10430595;28;20592;-68
2023/04/30 00:39:46;;;;;;;4.07;3.77;;;15.70;37.70;;;;;;10395799;28;20239;-70
2023/04/30 00:44:50;;;;;;;3.63;3.33;;;15.70;37.70;;;;;;10391511;28;20224;-70
2023/04/30 00:49:54;;;;;;;4.17;3.87;;;15.60;37.80;;;;;;10387514;28;20239;-70
2023/04/30 00:54:57;;;;;;;4.10;3.80;;;15.60;37.70;;;;;;10376219;28;20234;-69
2023/04/30 01:00:02;;;;;;;4.60;4.20;;;15.50;37.60;;;;;;10373500;28;20241;-69
2023/04/30 01:05:07;;;;;;;3.63;3.33;;;15.40;37.80;;;;;;10371569;28;20225;-69
2023/04/30 01:10:11;;;;;;;3.70;3.40;;;15.30;37.70;;;;;;10378996;28;20225;-69
2023/04/30 01:15:27;;;;;;;4.10;3.80;;;15.30;38.00;;;;;;10373515;28;20229;-69
2023/04/30 01:20:32;;;;;;;3.97;3.67;;;15.30;38.60;;;;;;10371691;28;20229;-69
2023/04/30 01:26:07;;;;;;;4.20;3.90;;;15.30;38.30;;;;;;10372106;28;20663;-69
2023/04/30 01:31:18;;;;;;;4.10;3.80;;;15.30;38.60;;;;;;10371117;28;20234;-69
2023/04/30 01:36:33;;;;;;;3.80;3.50;;;15.20;38.50;;;;;;10372464;28;20239;-69
2023/04/30 01:41:41;;;;;;;3.50;3.20;;;15.30;38.50;;;;;;10373201;28;20225;-69
2023/04/30 01:46:55;;;;;;;4.40;4.10;;;15.20;38.40;;;;;;10370875;28;20225;-69
2023/04/30 01:52:07;;;;;;;4.30;4.00;;;15.30;38.60;;;;;;10373531;28;20628;-69
2023/04/30 01:57:16;;;;;;;4.83;4.43;;;15.30;38.60;;;;;;10372386;28;20230;-69
2023/04/30 02:02:21;;;;;;;4.20;3.90;;;15.30;38.60;;;;;;10368380;28;20235;-69
2023/04/30 02:07:36;;;;;;;4.60;4.20;;;15.30;38.50;;;;;;10370740;28;20230;-69
2023/04/30 02:12:40;;;;;;;5.10;4.30;;;15.30;38.60;;;;;;10371104;28;20240;-69
2023/04/30 02:17:44;;;;;;;4.87;4.47;;;15.20;38.90;;;;;;10378467;28;20229;-69
2023/04/30 02:22:47;;;;;;;5.30;4.53;;;15.20;38.40;;;;;;10377550;28;20690;-69
2023/04/30 02:27:51;;;;;;;5.30;4.80;;;15.20;38.40;;;;;;10382076;28;20300;-69
2023/04/30 02:32:55;;;;;;;5.53;5.03;;;15.20;38.30;;;;;;10377140;28;20226;-69
2023/04/30 02:37:59;;;;;;;5.13;4.73;;;15.20;38.50;;;;;;10379014;28;20238;-70
2023/04/30 02:43:02;;;;;;;5.50;5.00;;;15.20;38.50;;;;;;10382286;28;20234;-70
2023/04/30 02:48:06;;;;;;;4.70;4.30;;;15.20;38.40;;;;;;10388900;28;20440;-69
2023/04/30 02:53:10;;;;;;;5.30;4.90;;;15.20;38.50;;;;;;10418326;28;20233;-69
2023/04/30 02:58:13;;;;;;;5.43;4.93;;;15.20;38.40;;;;;;10419626;28;20608;-69
2023/04/30 03:03:18;;;;;;;5.53;5.10;;;15.10;38.10;;;;;;10412837;28;20556;-69
2023/04/30 03:08:21;;;;;;;5.63;5.23;;;15.10;38.30;;;;;;10411417;28;20283;-68
2023/04/30 03:13:25;;;;;;;5.50;5.10;;;15.10;38.00;;;;;;10410610;28;20236;-69
2023/04/30 03:18:30;;;;;;;5.37;4.90;;;15.00;38.00;;;;;;10416004;28;20630;-68
2023/04/30 03:23:33;;;;;;;5.27;4.87;;;14.90;38.00;;;;;;10427448;28;20736;-68
2023/04/30 03:28:36;;;;;;;5.17;4.77;;;14.90;38.10;;;;;;10411515;28;20218;-68
2023/04/30 03:33:40;;;;;;;5.40;5.00;;;14.90;38.20;;;;;;10416314;28;20960;-68
2023/04/30 03:38:44;;;;;;;5.83;5.43;;;14.80;38.20;;;;;;10428854;28;20310;-69
2023/04/30 03:43:47;;;;;;;5.07;4.67;;;14.80;38.40;;;;;;10417225;28;20307;-69
2023/04/30 03:48:51;;;;;;;5.40;5.00;;;14.80;38.20;;;;;;10433759;28;20229;-68
2023/04/30 03:53:54;;;;;;;5.77;5.27;;;14.80;38.30;;;;;;10445782;28;20230;-68
2023/04/30 03:58:57;;;;;;;5.53;5.13;;;14.70;38.10;;;;;;10424179;28;20225;-68
2023/04/30 04:04:02;;;;;;;5.50;5.10;;;14.70;38.30;;;;;;10430936;28;20242;-70
2023/04/30 04:09:05;;;;;;;5.80;5.30;;;14.70;38.50;;;;;;10373361;28;20226;-70
2023/04/30 04:14:08;;;;;;;5.83;5.30;;;14.70;38.30;;;;;;10376579;28;20230;-70
2023/04/30 04:19:13;;;;;;;6.20;5.70;;;14.70;38.50;;;;;;10373068;28;20293;-70
2023/04/30 04:24:16;;;;;;;5.83;5.33;;;14.70;38.70;;;;;;10373590;28;20234;-70
2023/04/30 04:29:19;;;;;;;5.70;5.20;;;14.70;38.60;;;;;;10378695;28;20757;-70
2023/04/30 04:34:24;;;;;;;5.90;5.40;;;14.70;38.60;;;;;;10376299;28;20574;-70
2023/04/30 04:39:27;;;;;;;6.00;5.50;;;14.70;38.70;;;;;;10371281;28;20241;-70
2023/04/30 04:44:31;;;;;;;6.30;5.80;;;14.70;38.70;;;;;;10370608;28;20226;-70
2023/04/30 04:49:35;;;;;;;5.73;5.20;;;14.70;38.70;;;;;;10368877;28;20230;-70
2023/04/30 04:54:38;;;;;;;6.07;5.57;;;14.60;38.80;;;;;;10369704;28;20232;-70
2023/04/30 04:59:41;;;;;;;6.10;5.60;;;14.60;38.60;;;;;;10370624;28;20234;-70
2023/04/30 05:04:49;;;;;;;6.60;5.90;;;14.60;38.70;;;;;;10369182;28;20694;-70
2023/04/30 05:09:52;;;;;;;5.47;5.07;;;14.60;39.00;;;;;;10374576;28;20258;-70
2023/04/30 05:14:55;;;;;;;5.50;5.10;;;14.60;38.80;;;;;;10370711;28;20228;-70
2023/04/30 05:20:00;;;;;;;5.90;5.30;;;14.70;39.00;;;;;;10371009;28;20245;-70
2023/04/30 05:25:03;;;;;;;6.27;5.60;;;14.70;39.00;;;;;;10370805;28;20697;-70
2023/04/30 05:30:08;;;;;;;6.20;5.70;;;14.70;38.90;;;;;;10373497;28;20300;-70
2023/04/30 05:35:12;;;;;;;5.40;5.00;;;14.70;39.10;;;;;;10373071;28;20754;-70
2023/04/30 05:40:16;;;;;;;6.80;6.20;;;14.70;39.10;;;;;;10372835;28;20868;-70
2023/04/30 05:45:19;;;;;;;7.07;6.37;;;14.70;38.90;;;;;;10369776;28;20230;-70
2023/04/30 05:50:23;;;;;;;6.83;6.23;;;14.70;38.90;;;;;;10378658;28;20234;-70
2023/04/30 05:55:26;;;;;;;6.67;6.17;;;14.70;39.10;;;;;;10383329;28;20237;-70
2023/04/30 06:00:30;;;;;;;7.00;6.30;;;14.70;39.00;;;;;;10375163;28;20237;-70
2023/04/30 06:05:34;;;;;;;7.87;7.13;;;14.80;39.10;;;;;;10379268;28;20249;-70
2023/04/30 06:10:38;;;;;;;7.47;6.87;;;14.80;39.10;;;;;;10383740;28;20320;-72
2023/04/30 06:15:41;;;;;;;7.40;6.70;;;14.80;38.90;;;;;;10381855;28;20776;-70
2023/04/30 06:20:46;;;;;;;7.80;7.10;;;14.80;39.00;;;;;;10378867;28;20236;-70
2023/04/30 06:25:49;;;;;;;7.17;6.57;;;14.90;39.00;;;;;;10376169;28;20225;-70
2023/04/30 06:30:53;;;;;;;6.83;6.33;;;14.90;39.20;;;;;;10378039;28;20236;-70
2023/04/30 06:35:57;;;;;;;7.60;6.90;;;14.90;39.10;;;;;;10378327;28;20260;-70
2023/04/30 06:41:00;;;;;;;6.27;5.77;;;15.00;39.10;;;;;;10378066;28;20230;-70
2023/04/30 06:46:03;;;;;;;6.53;5.93;;;15.10;39.30;;;;;;10376739;28;20706;-72
2023/04/30 06:51:09;;;;;;;6.10;5.70;;;15.20;39.40;;;;;;10380802;28;20261;-70
2023/04/30 06:56:13;;;;;;;7.37;6.50;;;15.30;39.30;;;;;;10382318;28;20230;-70
2023/04/30 07:01:16;;;;;;;7.03;6.43;;;15.40;39.10;;;;;;10380134;28;20238;-70
2023/04/30 07:06:20;;;;;;;7.10;6.60;;;15.50;39.00;;;;;;10375986;28;20701;-70
2023/04/30 07:11:24;;;;;;;6.70;6.10;;;15.70;38.90;;;;;;10379696;28;20304;-70
2023/04/30 07:16:27;;;;;;;6.40;5.90;;;15.80;39.00;;;;;;10402768;28;20247;-70
2023/04/30 07:21:32;;;;;;;7.03;6.43;;;15.90;38.90;;;;;;10388731;28;20325;-71
2023/04/30 07:26:35;;;;;;;5.60;5.20;;;16.00;38.50;;;;;;10422730;28;20221;-71
2023/04/30 07:31:38;;;;;;;6.60;6.00;;;16.10;38.70;;;;;;10401806;28;20230;-70
2023/04/30 07:36:43;;;;;;;6.87;6.27;;;16.30;38.60;;;;;;10399280;28;20233;-70
2023/04/30 07:41:46;;;;;;;7.00;5.90;;;16.40;38.50;;;;;;10400993;28;20225;-70
2023/04/30 07:46:49;;;;;;;5.90;5.40;;;16.50;38.80;;;;;;10412589;28;20233;-70
2023/04/30 07:51:54;;;;;;;5.93;5.53;;;16.70;38.60;;;;;;10393498;28;20234;-70
2023/04/30 07:56:57;;;;;;;6.60;6.10;;;16.80;38.20;;;;;;10408796;28;20225;-70
2023/04/30 08:02:00;;;;;;;6.60;6.10;;;17.00;38.40;;;;;;10403953;28;20230;-70
2023/04/30 08:07:06;;;;;;;6.83;5.60;;;17.10;38.40;;;;;;10404862;28;20802;-70
2023/04/30 08:12:09;;;;;;;6.50;6.00;;;17.20;37.70;;;;;;10388591;28;20240;-70
2023/04/30 08:17:12;;;;;;;5.13;4.83;;;17.30;38.10;;;;;;10395807;28;20599;-70
2023/04/30 08:22:17;;;;;;;5.10;4.70;;;17.40;37.90;;;;;;10400987;28;20716;-70
2023/04/30 08:27:20;;;;;;;4.60;4.30;;;17.60;37.40;;;;;;10412134;28;20309;-70
2023/04/30 08:32:23;;;;;;;4.90;4.50;;;17.70;37.20;;;;;;10411127;28;20237;-71
2023/04/30 08:37:28;;;;;;;4.23;3.90;;;17.80;37.20;;;;;;10405489;28;20285;-71
2023/04/30 08:42:35;;;;;;;4.30;3.90;;;17.90;36.60;;;;;;10413754;28;20364;-70
2023/04/30 08:47:39;;;;;;;4.37;4.00;;;18.00;36.70;;;;;;10401545;28;20644;-70
2023/04/30 08:52:44;;;;;;;3.53;3.23;;;18.00;36.50;;;;;;10415933;28;20308;-70
2023/04/30 08:57:47;;;;;;;3.37;3.10;;;18.10;35.40;;;;;;10377228;28;20241;-70
2023/04/30 09:02:50;;;;;;;3.20;2.90;;;18.10;35.70;;;;;;10399810;28;20230;-71
2023/04/30 09:07:55;;;;;;;2.70;2.47;;;18.20;35.70;;;;;;10390606;28;20288;-71
2023/04/30 09:13:04;;;;;;;3.40;3.20;;;18.30;35.00;;;;;;10374946;28;20226;-71
2023/04/30 09:18:10;;;;;;;3.50;3.30;;;18.30;35.00;;;;;;10425404;28;20226;-70
2023/04/30 09:23:15;;;;;;;3.47;3.17;;;18.40;35.10;;;;;;10407989;28;20217;-71
2023/04/30 09:28:22;;;;;;;3.17;2.93;;;18.40;35.10;;;;;;10387758;28;20209;-70
2023/04/30 09:33:25;;;;;;;2.90;2.70;;;18.40;35.00;;;;;;10433871;28;20248;-70
2023/04/30 09:38:31;;;;;;;3.40;3.20;;;18.40;35.10;;;;;;10407099;28;20233;-70
2023/04/30 09:43:44;;;;;;;3.10;2.90;;;18.40;34.50;;;;;;10420264;28;20742;-70
2023/04/30 09:48:48;;;;;;;3.13;2.93;;;18.50;35.20;;;;;;10375323;28;20577;-71
2023/04/30 09:53:53;;;;;;;3.23;2.77;;;18.50;35.20;;;;;;10371354;28;20635;-71
2023/04/30 09:58:57;;;;;;;3.60;3.30;;;18.60;35.00;;;;;;10372746;28;20250;-71
2023/04/30 10:04:01;;;;;;;3.97;3.67;;;18.60;35.10;;;;;;10372800;28;20233;-70
2023/04/30 10:09:07;;;;;;;3.17;2.90;;;18.60;34.50;;;;;;10373235;28;20280;-70
2023/04/30 10:14:12;;;;;;;3.33;3.13;;;18.70;34.30;;;;;;10383516;28;20600;-70
2023/04/30 10:19:20;;;;;;;3.33;3.13;;;18.70;34.10;;;;;;10375345;28;20741;-70
2023/04/30 10:24:25;;;;;;;3.10;2.90;;;18.70;34.30;;;;;;10372907;28;20237;-70
2023/04/30 10:29:28;;;;;;;3.33;3.03;;;18.70;34.10;;;;;;10374558;28;20226;-70
2023/04/30 10:34:41;;;;;;;3.23;3.03;;;18.80;34.50;;;;;;10377043;28;20236;-70
2023/04/30 10:39:47;;;;;;;3.27;3.03;;;18.80;33.70;;;;;;10384742;28;20234;-70
2023/04/30 10:44:50;;;;;;;3.37;3.17;;;18.80;34.10;;;;;;10375520;28;20241;-70
2023/04/30 10:49:53;;;;;;;2.90;2.70;;;18.80;34.20;;;;;;10377798;28;20234;-70
2023/04/30 10:54:57;;;;;;;3.00;2.80;;;18.70;34.00;;;;;;10374094;28;20230;-70
2023/04/30 11:00:20;;;;;;;2.90;2.70;;;18.80;34.00;;;;;;10380073;28;20226;-70
2023/04/30 11:05:34;;;;;;;3.27;2.93;;;18.80;33.20;;;;;;10377879;28;20225;-70
2023/04/30 11:10:57;;;;;;;3.30;3.10;;;18.90;33.20;;;;;;10385184;28;20230;-70
2023/04/30 11:16:04;;;;;;;3.10;2.80;;;19.00;33.60;;;;;;10384589;28;20229;-70
2023/04/30 11:21:08;;;;;;;2.57;2.47;;;19.10;33.30;;;;;;10415161;28;20253;-71
2023/04/30 11:26:13;;;;;;;3.00;2.80;;;19.20;33.40;;;;;;10389538;28;20305;-71
2023/04/30 11:31:18;;;;;;;2.90;2.70;;;19.30;32.90;;;;;;10393126;28;20647;-70
2023/04/30 11:36:23;;;;;;;2.97;2.70;;;19.30;33.10;;;;;;10394196;28;20230;-71
2023/04/30 11:41:28;;;;;;;3.00;2.70;;;19.40;33.10;;;;;;10394196;28;20339;-71
2023/04/30 11:46:31;;;;;;;3.20;2.90;;;19.60;33.00;;;;;;10390439;28;20678;-71
2023/04/30 11:51:37;;;;;;;2.90;2.70;;;19.70;33.10;;;;;;10396552;28;20284;-70
2023/04/30 11:56:47;;;;;;;2.77;2.57;;;19.70;32.00;;;;;;10384003;28;20309;-71
2023/04/30 12:01:50;;;;;;;2.60;2.40;;;19.70;31.10;;;;;;10393469;28;20717;-70
2023/04/30 12:06:55;;;;;;;3.23;3.03;;;19.70;32.30;;;;;;10388647;28;20256;-70
2023/04/30 12:12:01;;;;;;;3.33;3.10;;;19.60;32.10;;;;;;10412601;28;20253;-71
2023/04/30 12:17:04;;;;;;;2.53;2.33;;;19.60;31.40;;;;;;10398508;28;20223;-70
2023/04/30 12:22:07;;;;;;;2.50;2.30;;;19.50;32.20;;;;;;10406997;28;20236;-70
2023/04/30 12:27:12;;;;;;;2.23;2.13;;;19.50;31.70;;;;;;10402364;28;20594;-70
2023/04/30 12:32:17;;;;;;;2.80;2.60;;;19.60;31.20;;;;;;10394112;28;20217;-71
2023/04/30 12:37:21;;;;;;;2.93;2.60;;;19.70;32.10;;;;;;10392924;28;20224;-71
2023/04/30 12:42:31;;;;;;;2.30;2.20;;;19.80;32.10;;;;;;10402632;28;20233;-71
2023/04/30 12:47:40;;;;;;;2.60;2.40;;;19.90;31.20;;;;;;10383349;28;20675;-71
2023/04/30 12:52:44;;;;;;;2.57;2.37;;;20.00;30.60;;;;;;10392732;28;20230;-70
2023/04/30 12:58:07;;;;;;;2.37;2.10;;;20.10;31.20;;;;;;10388122;28;20229;-71
2023/04/30 13:03:10;;;;;;;2.20;2.10;;;20.10;30.10;;;;;;10396292;28;20224;-71
2023/04/30 13:08:14;;;;;;;1.87;1.77;;;20.20;30.50;;;;;;10392154;28;20225;-71
2023/04/30 13:13:20;;;;;;;1.87;1.77;;;20.20;30.20;;;;;;10404761;28;20240;-70
2023/04/30 13:18:23;;;;;;;1.90;1.80;;;20.20;29.60;;;;;;10406279;28;20261;-70
2023/04/30 13:23:26;;;;;;;2.10;2.00;;;20.20;30.00;;;;;;10407976;28;20236;-70
2023/04/30 13:28:32;;;;;;;2.27;2.07;;;20.30;29.90;;;;;;10396995;28;20233;-71
2023/04/30 13:33:36;;;;;;;2.00;1.80;;;20.30;29.40;;;;;;10386897;28;20237;-71
2023/04/30 13:38:40;;;;;;;2.10;2.00;;;20.30;29.50;;;;;;10389359;28;20230;-71
2023/04/30 13:43:46;;;;;;;2.30;2.10;;;20.30;29.90;;;;;;10388906;28;20229;-70
2023/04/30 13:48:51;;;;;;;2.40;2.20;;;20.40;29.70;;;;;;10379979;28;20353;-70
2023/04/30 13:53:55;;;;;;;2.40;2.20;;;20.40;30.00;;;;;;10382236;28;20262;-71
2023/04/30 13:59:00;;;;;;;2.13;1.93;;;20.40;29.90;;;;;;10386291;28;20975;-71
2023/04/30 14:04:03;;;;;;;3.97;1.90;;;20.50;28.90;;;;;;10391338;28;20225;-71
2023/04/30 14:09:07;;;;;;;2.00;1.90;;;20.50;29.40;;;;;;10389720;28;20221;-70
2023/04/30 14:14:11;;;;;;;1.93;1.83;;;20.50;29.00;;;;;;10400159;28;20229;-71
2023/04/30 14:19:15;;;;;;;1.90;1.80;;;20.60;28.40;;;;;;10413852;28;20245;-71
2023/04/30 14:24:21;;;;;;;1.90;1.80;;;20.60;28.80;;;;;;10393286;28;20230;-71
2023/04/30 14:29:25;;;;;;;2.07;1.97;;;20.70;29.20;;;;;;10397913;28;20226;-71
2023/04/30 14:34:29;;;;;;;1.90;1.80;;;20.80;28.60;;;;;;10418627;28;20233;-71
2023/04/30 14:39:32;;;;;;;2.00;1.90;;;20.90;28.90;;;;;;10407458;28;20287;-70
2023/04/30 14:44:37;;;;;;;2.27;2.17;;;20.90;28.70;;;;;;10392368;28;20729;-75
2023/04/30 14:49:40;;;;;;;2.40;2.20;;;20.90;28.40;;;;;;10399946;28;20244;-74
2023/04/30 14:54:46;;;;;;;2.50;2.30;;;20.90;28.70;;;;;;10392764;28;20241;-74
2023/04/30 14:59:53;;;;;;;2.40;2.20;;;20.90;27.80;;;;;;10386947;28;20237;-73
2023/04/30 15:04:57;;;;;;;2.17;1.97;;;20.90;28.50;;;;;;10403097;28;20230;-73
2023/04/30 15:10:00;;;;;;;2.47;1.87;;;21.00;28.50;;;;;;10405544;28;20456;-73
2023/04/30 15:15:06;;;;;;;2.13;1.90;;;21.00;28.30;;;;;;10399798;28;20226;-74
2023/04/30 15:20:10;;;;;;;2.47;2.30;;;21.00;27.80;;;;;;10402529;28;20229;-71
2023/04/30 15:25:13;;;;;;;2.10;2.00;;;21.10;28.20;;;;;;10413223;28;20747;-71
2023/04/30 15:30:20;;;;;;;2.67;2.47;;;21.10;28.20;;;;;;10410093;28;20649;-70
2023/04/30 15:35:23;;;;;;;2.50;2.40;;;21.10;27.50;;;;;;10410149;28;20229;-70
2023/04/30 15:40:26;;;;;;;2.33;2.23;;;21.10;28.10;;;;;;10410038;28;21108;-70
2023/04/30 15:45:32;;;;;;;2.10;2.00;;;21.10;28.10;;;;;;10409922;28;20237;-70
2023/04/30 15:50:36;;;;;;;2.30;2.20;;;21.10;27.70;;;;;;10425497;28;20315;-70
2023/04/30 15:55:39;;;;;;;2.43;2.10;;;21.10;27.70;;;;;;10450690;28;20221;-70
2023/04/30 16:00:44;;;;;;;2.33;2.23;;;21.20;27.70;;;;;;10450098;28;20705;-70
2023/04/30 16:05:47;;;;;;;2.37;2.17;;;21.20;26.70;;;;;;10450211;28;20236;-70
2023/04/30 16:10:50;;;;;;;1.80;1.70;;;21.10;27.50;;;;;;10424405;28;20225;-70
2023/04/30 16:15:55;;;;;;;2.20;2.10;;;21.10;27.40;;;;;;10408925;28;20232;-71
2023/04/30 16:20:59;;;;;;;2.40;1.90;;;21.10;26.60;;;;;;10408401;28;20244;-70
2023/04/30 16:26:02;;;;;;;2.03;1.90;;;21.20;27.30;;;;;;10408050;28;20229;-70
2023/04/30 16:31:06;;;;;;;2.60;2.20;;;21.20;26.90;;;;;;10408469;28;20245;-70
2023/04/30 16:36:10;;;;;;;2.60;1.90;;;21.20;26.10;;;;;;10428643;28;20228;-70
2023/04/30 16:41:15;;;;;;;2.20;2.10;;;21.10;26.70;;;;;;10435005;28;20241;-70
2023/04/30 16:46:19;;;;;;;2.00;1.90;;;21.00;26.00;;;;;;10405009;28;20233;-67
2023/04/30 16:51:23;;;;;;;2.17;2.00;;;21.00;26.30;;;;;;10419399;28;20274;-68
2023/04/30 16:56:26;;;;;;;2.53;2.20;;;21.00;26.60;;;;;;10413629;28;20229;-68
2023/04/30 17:01:31;;;;;;;2.40;2.20;;;21.00;26.30;;;;;;10405851;28;20623;-68
2023/04/30 17:06:35;;;;;;;2.40;2.20;;;21.00;26.00;;;;;;10438172;28;20224;-68
2023/04/30 17:11:38;;;;;;;2.50;1.80;;;21.00;26.00;;;;;;10447682;28;20761;-68
2023/04/30 17:16:43;;;;;;;2.63;2.10;;;21.00;26.10;;;;;;10447537;28;20740;-68
2023/04/30 17:21:46;;;;;;;2.70;2.50;;;21.00;26.00;;;;;;10421933;28;20244;-68
2023/04/30 17:26:50;;;;;;;2.50;2.10;;;20.90;25.90;;;;;;10406783;28;20240;-68
2023/04/30 17:31:54;;;;;;;2.30;2.10;;;20.80;25.90;;;;;;10406429;28;20868;-68
2023/04/30 17:36:58;;;;;;;2.53;2.33;;;20.60;25.70;;;;;;10406293;28;20225;-68
2023/04/30 17:42:02;;;;;;;2.70;2.50;;;20.50;25.70;;;;;;10433660;28;20314;-68
2023/04/30 17:47:06;;;;;;;3.07;2.80;;;20.50;26.10;;;;;;10416149;28;20607;-68
2023/04/30 17:52:09;;;;;;;2.73;2.53;;;20.40;25.90;;;;;;10414045;28;20229;-69
2023/04/30 17:57:13;;;;;;;3.40;2.83;;;20.40;26.30;;;;;;10410719;28;20789;-68
2023/04/30 18:02:17;;;;;;;3.00;2.73;;;20.40;26.20;;;;;;10413625;28;20287;-69
2023/04/30 18:07:20;;;;;;;5.90;4.87;;;20.40;26.20;;;;;;10413581;28;20722;-68
2023/04/30 18:12:24;;;;;;;5.97;4.80;;;20.40;26.50;;;;;;10413282;28;20247;-68
2023/04/30 18:17:28;;;;;;;3.97;3.67;;;20.40;26.80;;;;;;10413135;28;20221;-68
2023/04/30 18:22:32;;;;;;;3.33;3.03;;;20.30;26.70;;;;;;10412789;28;20236;-69
2023/04/30 18:27:35;;;;;;;4.10;3.33;;;20.30;26.80;;;;;;10413198;28;20909;-69
2023/04/30 18:32:40;;;;;;;2.90;2.60;;;20.20;26.80;;;;;;10414206;28;20241;-69
2023/04/30 18:37:43;;;;;;;2.60;2.40;;;20.10;26.60;;;;;;10414233;28;20225;-68
2023/04/30 18:42:47;;;;;;;2.80;2.60;;;20.00;26.80;;;;;;10413891;28;20767;-68
2023/04/30 18:47:51;;;;;;;2.43;2.23;;;19.90;26.80;;;;;;10413629;28;20241;-68
2023/04/30 18:52:54;;;;;;;3.10;2.80;;;19.80;26.90;;;;;;10432311;28;20286;-68
2023/04/30 18:57:58;;;;;;;2.73;2.53;;;19.60;27.00;;;;;;10435068;28;20229;-69
2023/04/30 19:03:03;;;;;;;3.00;2.80;;;19.50;27.10;;;;;;10414066;28;20234;-69
2023/04/30 19:08:07;;;;;;;3.00;2.80;;;19.40;27.20;;;;;;10413850;28;20329;-69
2023/04/30 19:13:10;;;;;;;3.10;2.90;;;19.40;27.40;;;;;;10413210;28;20240;-69
2023/04/30 19:18:16;;;;;;;2.90;2.70;;;19.30;27.30;;;;;;10434300;28;20233;-68
2023/04/30 19:23:19;;;;;;;2.73;2.53;;;19.10;27.40;;;;;;10423462;28;20240;-69
2023/04/30 19:28:23;;;;;;;3.07;2.87;;;19.00;27.40;;;;;;10412516;28;20317;-68
2023/04/30 19:33:28;;;;;;;2.67;2.47;;;18.90;27.50;;;;;;10419643;28;20724;-69
2023/04/30 19:38:31;;;;;;;2.80;2.60;;;18.80;27.60;;;;;;10412086;28;20234;-68
2023/04/30 19:43:35;;;;;;;2.80;2.60;;;18.70;27.60;;;;;;10411049;28;20620;-69
2023/04/30 19:48:39;;;;;;;2.77;2.53;;;18.60;27.70;;;;;;10458033;22;20239;-70
2023/04/30 19:53:42;;;;;;;2.97;2.53;;;18.50;27.80;;;;;;10452054;28;20569;-70
2023/04/30 19:58:46;;;;;;;2.70;2.50;;;18.40;27.80;;;;;;10447510;28;20217;-69
2023/04/30 20:03:50;;;;;;;2.90;2.70;;;18.30;27.80;;;;;;10442159;28;20234;-70
2023/04/30 20:08:54;;;;;;;2.97;2.77;;;18.20;27.90;;;;;;10441275;28;20307;-69
2023/04/30 20:13:57;;;;;;;2.73;2.53;;;18.10;27.80;;;;;;10432549;28;20834;-70
2023/04/30 20:19:02;;;;;;;2.10;2.00;;;18.00;28.00;;;;;;10438140;28;20225;-70
2023/04/30 20:24:05;;;;;;;2.37;2.20;;;17.80;28.00;;;;;;10430207;28;20229;-69
2023/04/30 20:29:09;;;;;;;2.57;2.37;;;17.70;28.00;;;;;;10439176;28;20229;-70
2023/04/30 20:34:14;;;;;;;2.23;2.13;;;17.60;28.20;;;;;;10434141;28;20720;-70
2023/04/30 20:39:17;;;;;;;4.13;2.77;;;17.60;28.30;;;;;;10440713;28;20224;-70
2023/04/30 20:44:20;;;;;;;2.53;2.33;;;17.50;28.40;;;;;;10426644;28;20233;-70
2023/04/30 20:49:25;;;;;;;2.87;2.67;;;17.40;28.40;;;;;;10427821;28;20232;-70
2023/04/30 20:54:29;;;;;;;2.73;2.50;;;17.40;28.60;;;;;;10431624;28;20709;-70
2023/04/30 20:59:34;;;;;;;2.60;2.40;;;17.30;28.50;;;;;;10429748;28;20228;-70
2023/04/30 21:04:38;;;;;;;2.57;2.37;;;17.20;28.50;;;;;;10435527;28;20286;-70
2023/04/30 21:09:42;;;;;;;2.63;2.43;;;17.10;28.60;;;;;;10430170;28;20255;-70
2023/04/30 21:14:45;;;;;;;2.27;2.10;;;17.10;29.20;;;;;;10434803;28;20673;-70
2023/04/30 21:19:50;;;;;;;2.53;2.33;;;17.00;28.70;;;;;;10430699;28;20660;-70
2023/04/30 21:24:53;;;;;;;3.57;2.80;;;16.90;28.80;;;;;;10425912;28;20240;-70
2023/04/30 21:29:57;;;;;;;3.10;2.60;;;16.80;28.80;;;;;;10435546;28;20938;-70
2023/04/30 21:35:02;;;;;;;3.07;2.87;;;16.70;28.70;;;;;;10430657;28;20229;-71
2023/04/30 21:40:06;;;;;;;2.43;2.23;;;16.60;28.90;;;;;;10429590;28;20708;-70
2023/04/30 21:45:10;;;;;;;2.50;2.40;;;16.50;28.80;;;;;;10434121;28;20224;-70
2023/04/30 21:50:15;;;;;;;2.53;2.33;;;16.40;28.80;;;;;;10432806;28;20611;-71
2023/04/30 21:55:18;;;;;;;2.80;2.60;;;16.30;28.90;;;;;;10433324;28;20742;-70
2023/04/30 22:00:21;;;;;;;3.07;2.50;;;16.30;28.90;;;;;;10431193;28;20225;-71
2023/04/30 22:05:26;;;;;;;2.93;2.73;;;16.20;28.90;;;;;;10427435;28;20275;-70
2023/04/30 22:10:30;;;;;;;3.10;2.90;;;16.10;29.10;;;;;;10435597;28;20225;-71
2023/04/30 22:15:33;;;;;;;3.23;2.93;;;16.00;29.10;;;;;;10428307;28;20229;-71
2023/04/30 22:20:52;;;;;;;3.07;2.87;;;15.90;29.10;;;;;;10438101;28;20288;-70
2023/04/30 22:25:55;;;;;;;3.23;3.03;;;15.90;29.30;;;;;;10432064;28;20713;-71
2023/04/30 22:30:59;;;;;;;4.07;3.67;;;15.80;29.20;;;;;;10438954;28;20221;-71
2023/04/30 22:36:04;;;;;;;3.50;3.03;;;15.70;29.30;;;;;;10431910;28;20264;-71
2023/04/30 22:41:07;;;;;;;3.00;2.80;;;15.60;29.40;;;;;;10439702;28;20312;-71
2023/04/30 22:46:10;;;;;;;3.37;3.07;;;15.60;29.30;;;;;;10444807;28;20225;-70
2023/04/30 22:51:16;;;;;;;3.63;3.33;;;15.50;29.30;;;;;;10445567;28;20217;-71
2023/04/30 22:56:19;;;;;;;3.40;3.10;;;15.40;30.00;;;;;;10447629;28;20960;-70
2023/04/30 23:01:22;;;;;;;3.70;3.40;;;15.40;29.40;;;;;;10442040;28;20323;-71
2023/04/30 23:06:28;;;;;;;3.23;2.93;;;15.30;29.50;;;;;;10447620;28;20229;-71
2023/04/30 23:11:32;;;;;;;3.80;3.50;;;15.20;29.60;;;;;;10447585;28;20771;-71
2023/04/30 23:16:38;;;;;;;3.83;3.57;;;15.20;29.60;;;;;;10441788;28;20224;-70
2023/04/30 23:21:43;;;;;;;4.10;3.70;;;15.10;29.70;;;;;;10443205;28;20233;-71
2023/04/30 23:26:47;;;;;;;4.20;3.90;;;15.00;29.80;;;;;;10441502;28;20744;-70
2023/04/30 23:31:52;;;;;;;4.83;4.43;;;15.00;29.70;;;;;;10444992;28;20236;-70
2023/04/30 23:36:57;;;;;;;5.30;4.80;;;14.90;29.90;;;;;;10445776;28;20236;-70
2023/04/30 23:42:01;;;;;;;5.27;4.77;;;14.70;30.00;;;;;;10435051;28;20228;-71
2023/04/30 23:47:04;;;;;;;5.60;4.60;;;14.60;29.90;;;;;;10446736;28;20239;-70
2023/04/30 23:52:09;;;;;;;4.87;4.47;;;14.50;30.00;;;;;;10441430;28;20755;-70
2023/04/30 23:57:12;;;;;;;4.80;4.10;;;14.40;30.10;;;;;;10438218;28;20216;-70
